Time;durP1;ratioP1;P1;durP2;ratioP2;P2;SDS_P1;SDS_P2;PMS_P1;PMS_P2;Temp;Humidity;BMP_temperature;BMP_pressure;BME280_temperature;BME280_humidity;BME280_pressure;Samples;Min_cycle;Max_cycle;Signal;HPM_P1;HPM_P2
2021/04/25 17:36:00;;;;;;;26.90;10.57;;;25.30;49.10;;;;;;5047689;28;20064;-62
2021/04/25 17:38:27;;;;;;;26.02;10.57;;;25.30;49.00;;;;;;5052021;28;20029;-62
2021/04/25 17:40:53;;;;;;;19.17;9.57;;;25.30;49.60;;;;;;5053053;28;20029;-60
2021/04/25 17:43:19;;;;;;;23.48;9.60;;;25.30;49.70;;;;;;5071663;28;20078;-61
2021/04/25 17:45:46;;;;;;;22.70;10.43;;;25.30;49.10;;;;;;5076015;28;20044;-61
2021/04/25 17:48:12;;;;;;;23.35;9.93;;;25.30;49.10;;;;;;5061082;28;20024;-62
2021/04/25 17:50:38;;;;;;;26.35;9.20;;;25.20;49.10;;;;;;5075910;28;20108;-62
2021/04/25 17:53:04;;;;;;;22.60;9.40;;;25.20;49.50;;;;;;5070883;28;20394;-63
2021/04/25 17:55:32;;;;;;;23.52;8.45;;;25.20;48.90;;;;;;5055382;28;20068;-61
2021/04/25 17:57:58;;;;;;;23.10;10.05;;;25.20;48.90;;;;;;5055456;28;20536;-61
2021/04/25 18:00:26;;;;;;;29.92;8.63;;;25.20;49.00;;;;;;5062626;28;20028;-61
2021/04/25 18:02:52;;;;;;;27.17;10.90;;;25.20;48.80;;;;;;5075254;28;20066;-61
2021/04/25 18:05:19;;;;;;;23.02;8.98;;;25.20;48.90;;;;;;5064246;28;20395;-61
2021/04/25 18:07:48;;;;;;;26.38;8.57;;;25.20;49.00;;;;;;5062326;28;20060;-60
2021/04/25 18:10:15;;;;;;;24.20;8.70;;;25.20;48.80;;;;;;5075228;28;20041;-61
2021/04/25 18:12:42;;;;;;;27.42;9.00;;;25.10;48.90;;;;;;5065804;28;20112;-60
2021/04/25 18:15:10;;;;;;;20.02;8.52;;;25.10;48.90;;;;;;5073214;28;20033;-60
2021/04/25 18:17:37;;;;;;;26.70;9.07;;;25.10;49.00;;;;;;5075564;28;20378;-61
2021/04/25 18:20:05;;;;;;;36.40;9.55;;;25.10;48.90;;;;;;5075289;28;20032;-61
2021/04/25 18:22:31;;;;;;;30.75;8.63;;;25.10;48.60;;;;;;5075045;28;20355;-64
2021/04/25 18:24:57;;;;;;;22.33;8.32;;;25.10;48.70;;;;;;5074943;28;20377;-61
2021/04/25 18:27:27;;;;;;;24.35;7.20;;;25.10;48.90;;;;;;5075103;28;20111;-61
2021/04/25 18:29:54;;;;;;;27.77;8.13;;;25.10;48.40;;;;;;5073599;28;20120;-61
2021/04/25 18:32:21;;;;;;;32.78;8.85;;;25.10;48.30;;;;;;5058623;28;20056;-61
2021/04/25 18:34:49;;;;;;;34.75;8.80;;;25.10;48.50;;;;;;5074798;28;20067;-61
2021/04/25 18:37:15;;;;;;;58.95;12.07;;;25.10;48.90;;;;;;5056628;28;20041;-61
2021/04/25 18:39:41;;;;;;;42.50;9.95;;;25.10;49.20;;;;;;5073550;28;20036;-62
2021/04/25 18:42:09;;;;;;;40.90;10.68;;;25.00;49.30;;;;;;5072987;28;20343;-62
2021/04/25 18:44:38;;;;;;;45.50;12.05;;;25.00;49.50;;;;;;5074504;28;20048;-61
2021/04/25 18:47:05;;;;;;;42.80;10.02;;;25.00;49.70;;;;;;5074669;28;20064;-61
2021/04/25 18:49:31;;;;;;;53.90;11.05;;;25.00;50.00;;;;;;5074568;28;20060;-61
2021/04/25 18:52:00;;;;;;;58.88;13.68;;;25.00;50.30;;;;;;5074282;28;20108;-61
2021/04/25 18:54:26;;;;;;;50.70;11.35;;;25.00;50.70;;;;;;5074273;28;20044;-60
2021/04/25 18:56:54;;;;;;;45.92;9.40;;;24.90;50.50;;;;;;5074339;28;20117;-60
2021/04/25 18:59:21;;;;;;;40.33;11.70;;;24.90;50.60;;;;;;5074279;28;20553;-60
2021/04/25 19:01:47;;;;;;;54.78;11.05;;;24.90;50.90;;;;;;5074356;28;20071;-62
2021/04/25 19:04:13;;;;;;;42.70;9.63;;;24.80;51.00;;;;;;5054347;28;20120;-61
2021/04/25 19:06:39;;;;;;;54.72;10.20;;;24.80;50.90;;;;;;5056581;28;20549;-63
2021/04/25 19:09:05;;;;;;;43.25;10.38;;;24.70;51.00;;;;;;5074362;28;20040;-61
2021/04/25 19:11:32;;;;;;;38.28;9.23;;;24.70;51.10;;;;;;5068328;28;20109;-62
2021/04/25 19:13:58;;;;;;;48.45;10.93;;;24.70;51.10;;;;;;5060753;28;20044;-60
2021/04/25 19:16:24;;;;;;;44.05;10.43;;;24.70;51.70;;;;;;5057432;28;20236;-61
2021/04/25 19:18:50;;;;;;;37.38;9.85;;;24.70;51.10;;;;;;5035347;28;20119;-60
2021/04/25 19:21:17;;;;;;;41.10;10.15;;;24.70;51.10;;;;;;5060610;28;20401;-60
2021/04/25 19:23:44;;;;;;;48.50;9.90;;;24.70;51.10;;;;;;5072230;28;20040;-60
2021/04/25 19:26:12;;;;;;;37.22;9.50;;;24.60;51.10;;;;;;5054413;28;20034;-60
2021/04/25 19:28:40;;;;;;;38.58;10.68;;;24.60;51.00;;;;;;5032200;28;20371;-60
2021/04/25 19:31:09;;;;;;;40.75;9.20;;;24.60;51.10;;;;;;5032507;28;20052;-61
2021/04/25 19:33:36;;;;;;;39.53;10.10;;;24.60;51.10;;;;;;5035149;28;20041;-62
2021/04/25 19:36:02;;;;;;;36.50;9.77;;;24.60;51.30;;;;;;5068042;28;20041;-61
2021/04/25 19:38:28;;;;;;;43.55;9.10;;;24.60;51.30;;;;;;5053490;28;20040;-62
2021/04/25 19:40:54;;;;;;;46.97;9.95;;;24.50;51.30;;;;;;5053093;28;20114;-62
2021/04/25 19:43:20;;;;;;;28.60;7.55;;;24.50;51.30;;;;;;5048100;28;20034;-62
2021/04/25 19:45:46;;;;;;;29.40;8.55;;;24.50;51.30;;;;;;5033684;28;20033;-62
2021/04/25 19:48:17;;;;;;;40.75;8.35;;;24.50;51.40;;;;;;5053478;28;20078;-62
2021/04/25 19:50:56;;;;;;;32.13;9.20;;;24.50;51.70;;;;;;5072281;28;20028;-62
2021/04/25 19:53:23;;;;;;;31.85;9.07;;;24.50;51.90;;;;;;5062440;28;20061;-61
2021/04/25 19:55:49;;;;;;;37.85;9.00;;;24.50;51.80;;;;;;5052935;28;20064;-61
2021/04/25 19:58:16;;;;;;;29.98;7.65;;;24.50;51.80;;;;;;5052848;28;20428;-62
2021/04/25 20:00:46;;;;;;;40.25;8.52;;;24.40;51.80;;;;;;5052833;28;20043;-62
2021/04/25 20:03:12;;;;;;;36.20;9.52;;;24.30;51.70;;;;;;5042806;28;20041;-62
2021/04/25 20:05:40;;;;;;;26.67;7.85;;;24.50;51.80;;;;;;5033162;28;20068;-62
2021/04/25 20:08:12;;;;;;;31.30;6.47;;;24.40;51.70;;;;;;5037753;28;20086;-62
2021/04/25 20:10:39;;;;;;;34.60;7.70;;;24.40;51.80;;;;;;5052685;28;20029;-61
2021/04/25 20:13:07;;;;;;;32.08;8.10;;;24.40;51.70;;;;;;5052271;28;20039;-61
2021/04/25 20:15:33;;;;;;;33.50;7.72;;;24.40;51.70;;;;;;5035057;28;20068;-61
2021/04/25 20:17:59;;;;;;;26.83;8.18;;;24.40;52.20;;;;;;5053335;28;20064;-62
2021/04/25 20:20:30;;;;;;;39.20;8.52;;;24.40;51.60;;;;;;5052560;28;20041;-61
2021/04/25 20:22:56;;;;;;;27.75;6.68;;;24.40;51.60;;;;;;5070736;28;20047;-61
2021/04/25 20:25:26;;;;;;;35.67;8.23;;;24.40;51.60;;;;;;5056819;28;20113;-62
2021/04/25 20:27:53;;;;;;;28.73;7.82;;;24.40;51.70;;;;;;5050778;28;20112;-60
2021/04/25 20:30:22;;;;;;;29.67;7.95;;;24.40;51.80;;;;;;5050006;28;20040;-62
2021/04/25 20:32:49;;;;;;;30.45;8.30;;;24.40;51.90;;;;;;5051631;28;20080;-60
2021/04/25 20:35:15;;;;;;;22.88;8.90;;;24.40;51.80;;;;;;5049604;28;20045;-61
2021/04/25 20:37:42;;;;;;;35.30;8.88;;;24.30;51.80;;;;;;5051944;28;20029;-60
2021/04/25 20:40:18;;;;;;;60.65;34.88;;;24.40;51.90;;;;;;5051485;28;20061;-60
2021/04/25 20:42:45;;;;;;;52.47;28.98;;;24.40;51.80;;;;;;5033654;28;20037;-61
2021/04/25 20:45:12;;;;;;;60.30;37.45;;;24.40;51.80;;;;;;5034455;28;20353;-61
2021/04/25 20:47:38;;;;;;;66.28;46.40;;;24.40;51.80;;;;;;5053691;28;20057;-61
2021/04/25 20:50:05;;;;;;;74.85;47.70;;;24.40;51.80;;;;;;5053438;28;20210;-60
2021/04/25 20:52:31;;;;;;;65.28;43.97;;;24.40;51.80;;;;;;5052328;28;20370;-60
2021/04/25 20:54:57;;;;;;;66.65;38.30;;;24.40;51.80;;;;;;5048246;28;20033;-63
2021/04/25 20:57:24;;;;;;;55.88;32.70;;;24.40;51.70;;;;;;5041819;28;20091;-62
2021/04/25 20:59:50;;;;;;;53.35;33.38;;;24.40;51.70;;;;;;5035146;28;20044;-61
2021/04/25 21:02:16;;;;;;;53.08;29.55;;;24.40;51.70;;;;;;5033877;28;20042;-61
2021/04/25 21:04:43;;;;;;;53.85;23.73;;;24.40;51.70;;;;;;5045127;28;20336;-60
2021/04/25 21:07:09;;;;;;;40.95;22.25;;;24.40;51.80;;;;;;5052748;28;20033;-62
2021/04/25 21:09:35;;;;;;;53.53;25.63;;;24.40;51.90;;;;;;5051144;28;20045;-62
2021/04/25 21:12:01;;;;;;;45.28;25.23;;;24.40;51.90;;;;;;5052756;28;20052;-59
2021/04/25 21:14:27;;;;;;;40.15;24.13;;;24.30;51.90;;;;;;5052925;28;20041;-64
2021/04/25 21:16:53;;;;;;;46.08;24.05;;;24.40;52.10;;;;;;5059844;28;20412;-62
2021/04/25 21:19:19;;;;;;;55.78;28.50;;;24.30;52.10;;;;;;5055039;28;20486;-64
2021/04/25 21:21:48;;;;;;;57.83;37.30;;;24.40;52.20;;;;;;5055368;28;20037;-64
2021/04/25 21:24:15;;;;;;;70.65;52.90;;;24.40;52.10;;;;;;5055224;28;20040;-64
2021/04/25 21:26:41;;;;;;;97.35;73.38;;;24.40;52.10;;;;;;5055150;28;20029;-65
2021/04/25 21:29:07;;;;;;;106.18;79.28;;;24.30;52.10;;;;;;5055409;28;20112;-65
2021/04/25 21:31:34;;;;;;;97.30;78.15;;;24.30;52.10;;;;;;5055075;28;20037;-65
2021/04/25 21:34:00;;;;;;;93.07;73.47;;;24.40;52.10;;;;;;5054311;28;20048;-64
2021/04/25 21:36:26;;;;;;;87.15;68.57;;;24.30;52.10;;;;;;5054581;28;20041;-64
2021/04/25 21:38:52;;;;;;;87.55;66.97;;;24.40;52.10;;;;;;5055414;28;20065;-65
2021/04/25 21:41:18;;;;;;;87.78;63.70;;;24.30;52.00;;;;;;5055300;28;20079;-62
2021/04/25 21:43:44;;;;;;;91.40;64.82;;;24.40;52.10;;;;;;5053244;28;20502;-62
2021/04/25 21:46:11;;;;;;;89.63;64.63;;;24.30;52.00;;;;;;5054225;28;20096;-62
2021/04/25 21:48:37;;;;;;;80.72;60.97;;;24.40;52.10;;;;;;5053228;28;20034;-62
2021/04/25 21:51:03;;;;;;;76.00;57.65;;;24.40;52.10;;;;;;5054436;28;20040;-62
2021/04/25 21:53:29;;;;;;;80.07;55.33;;;24.30;52.00;;;;;;5053980;28;20029;-61
2021/04/25 21:55:55;;;;;;;67.75;48.17;;;24.30;52.00;;;;;;5054453;28;20320;-62
2021/04/25 21:58:21;;;;;;;43.90;23.60;;;24.30;52.00;;;;;;5052564;28;20052;-62
2021/04/25 22:00:48;;;;;;;62.25;30.73;;;24.30;52.20;;;;;;5054492;28;20474;-62
2021/04/25 22:03:18;;;;;;;48.15;26.83;;;24.30;52.20;;;;;;5051704;28;20048;-62
2021/04/25 22:05:44;;;;;;;;;;;24.30;52.80;;;;;;5036878;28;20037;-62
2021/04/25 22:08:11;;;;;;;51.33;30.92;;;24.30;52.20;;;;;;5036315;28;20054;-61
2021/04/25 22:10:40;;;;;;;52.65;28.17;;;24.30;52.00;;;;;;5054229;28;20086;-62
2021/04/25 22:13:07;;;;;;;54.67;19.90;;;24.30;52.20;;;;;;5054133;28;20040;-65
2021/04/25 22:15:34;;;;;;;51.95;23.33;;;24.30;52.60;;;;;;5045063;28;20037;-64
2021/04/25 22:18:00;;;;;;;50.47;24.17;;;24.30;52.70;;;;;;5038600;28;20044;-63
2021/04/25 22:20:27;;;;;;;47.22;22.40;;;24.30;52.60;;;;;;5070820;28;20048;-65
2021/04/25 22:22:54;;;;;;;51.17;22.10;;;24.20;52.60;;;;;;5056146;28;20037;-62
2021/04/25 22:25:21;;;;;;;46.42;22.25;;;24.20;52.70;;;;;;5036777;28;20116;-64
2021/04/25 22:27:47;;;;;;;51.65;20.67;;;24.20;52.70;;;;;;5054275;28;20033;-64
2021/04/25 22:30:21;;;;;;;48.00;22.75;;;24.20;52.80;;;;;;5054859;28;20033;-64
2021/04/25 22:32:47;;;;;;;41.33;20.45;;;24.20;52.80;;;;;;5054966;28;20033;-64
2021/04/25 22:35:17;;;;;;;37.28;20.13;;;24.10;52.70;;;;;;5069380;28;20048;-63
2021/04/25 22:37:43;;;;;;;40.40;18.50;;;24.20;52.90;;;;;;5075320;28;20574;-64
2021/04/25 22:40:11;;;;;;;40.45;20.17;;;24.20;52.80;;;;;;5075208;28;20265;-64
2021/04/25 22:42:38;;;;;;;43.70;19.08;;;24.10;52.80;;;;;;5073872;28;20036;-64
2021/04/25 22:45:05;;;;;;;42.70;18.48;;;24.20;52.90;;;;;;5056671;28;20044;-65
2021/04/25 22:47:31;;;;;;;36.10;17.55;;;24.10;52.90;;;;;;5075008;28;20116;-65
2021/04/25 22:49:57;;;;;;;44.35;17.52;;;24.20;52.90;;;;;;5074952;28;20032;-64
2021/04/25 22:52:23;;;;;;;34.15;16.92;;;24.20;52.90;;;;;;5074017;28;20040;-64
2021/04/25 22:54:49;;;;;;;33.30;16.92;;;24.10;52.90;;;;;;5074425;28;20540;-63
2021/04/25 22:57:15;;;;;;;37.95;16.92;;;24.20;52.90;;;;;;5074597;28;20087;-64
2021/04/25 22:59:41;;;;;;;32.63;16.40;;;24.20;52.90;;;;;;5074294;28;20032;-64
2021/04/25 23:02:08;;;;;;;35.47;17.25;;;24.20;52.80;;;;;;5074574;28;20123;-64
2021/04/25 23:04:34;;;;;;;39.65;16.85;;;24.10;52.80;;;;;;5074228;28;20036;-64
2021/04/25 23:07:00;;;;;;;40.88;27.33;;;24.10;52.90;;;;;;5074281;28;20032;-64
2021/04/25 23:09:27;;;;;;;55.78;33.97;;;24.10;52.90;;;;;;5074444;28;20037;-64
2021/04/25 23:11:53;;;;;;;50.40;32.28;;;24.10;52.90;;;;;;5072797;28;20028;-63
2021/04/25 23:14:19;;;;;;;52.72;32.35;;;24.10;52.90;;;;;;5073861;28;20454;-64
2021/04/25 23:16:45;;;;;;;56.20;34.85;;;24.10;52.90;;;;;;5074016;28;20032;-63
2021/04/25 23:19:11;;;;;;;44.47;27.27;;;24.10;52.90;;;;;;5056414;28;20067;-63
2021/04/25 23:21:37;;;;;;;53.30;25.83;;;24.10;52.90;;;;;;5073857;28;20033;-63
2021/04/25 23:24:04;;;;;;;43.15;26.33;;;24.10;52.90;;;;;;5073452;28;20123;-64
2021/04/25 23:26:30;;;;;;;39.60;25.98;;;24.10;52.90;;;;;;5073663;28;20090;-63
2021/04/25 23:28:56;;;;;;;39.60;24.52;;;24.10;52.90;;;;;;5073907;28;20848;-63
2021/04/25 23:31:22;;;;;;;37.83;23.45;;;24.10;52.80;;;;;;5074375;28;20451;-64
2021/04/25 23:33:48;;;;;;;40.17;21.52;;;24.10;52.80;;;;;;5073572;28;20109;-63
2021/04/25 23:36:14;;;;;;;42.15;25.98;;;24.10;52.80;;;;;;5073886;28;20119;-63
2021/04/25 23:38:40;;;;;;;46.45;21.85;;;24.10;52.80;;;;;;5072820;28;20047;-63
2021/04/25 23:41:07;;;;;;;37.15;21.85;;;24.10;52.80;;;;;;5054834;28;20040;-63
2021/04/25 23:43:33;;;;;;;35.75;20.65;;;24.10;52.80;;;;;;5073182;28;20028;-62
2021/04/25 23:45:59;;;;;;;41.35;23.17;;;24.10;52.80;;;;;;5073559;28;20028;-63
2021/04/25 23:48:25;;;;;;;34.65;20.27;;;24.10;52.80;;;;;;5073809;28;20037;-63
2021/04/25 23:50:51;;;;;;;39.83;18.23;;;24.00;52.80;;;;;;5073887;28;20044;-63
2021/04/25 23:53:17;;;;;;;38.72;19.35;;;24.10;52.70;;;;;;5071524;28;20036;-63
2021/04/25 23:55:43;;;;;;;32.75;19.00;;;24.00;52.70;;;;;;5073472;28;20373;-63
2021/04/25 23:58:09;;;;;;;31.85;18.67;;;24.00;52.70;;;;;;5072210;28;20109;-63
